createdAt,value
2023-01-30T00:01:55.631Z,-3.99
2023-01-30T00:04:22.282Z,-4.08
2023-01-30T00:06:48.940Z,-4.12
2023-01-30T00:09:15.458Z,-3.94
2023-01-30T00:11:42.498Z,-4.01
2023-01-30T00:14:09.194Z,-4.03
2023-01-30T00:16:35.818Z,-4.02
2023-01-30T00:19:02.344Z,-3.99
2023-01-30T00:21:29.679Z,-4.04
2023-01-30T00:23:56.223Z,-4.02
2023-01-30T00:26:22.751Z,-4.07
2023-01-30T00:28:49.322Z,-3.99
2023-01-30T00:31:15.842Z,-3.99
2023-01-30T00:33:42.384Z,-4.04
2023-01-30T00:36:10.297Z,-3.99
2023-01-30T00:38:37.411Z,-4.07
2023-01-30T00:41:06.716Z,-4.09
2023-01-30T00:43:51.930Z,-4.09
2023-01-30T00:46:47.246Z,-4.13
2023-01-30T00:49:14.194Z,-4.16
2023-01-30T00:51:41.045Z,-4.19
2023-01-30T00:54:07.582Z,-4.18
2023-01-30T00:56:34.521Z,-4.12
2023-01-30T00:59:01.098Z,-4.23
2023-01-30T01:01:27.785Z,-4.29
2023-01-30T01:03:54.286Z,-4.22
2023-01-30T01:06:20.816Z,-4.32
2023-01-30T01:08:47.390Z,-4.23
2023-01-30T01:11:24.300Z,-4.21
2023-01-30T01:14:00.749Z,-4.23
2023-01-30T01:16:29.835Z,-4.19
2023-01-30T01:18:58.278Z,-4.25
2023-01-30T01:21:25.057Z,-4.25
2023-01-30T01:23:58.933Z,-4.26
2023-01-30T01:26:26.494Z,-4.29
2023-01-30T01:28:57.619Z,-4.45
2023-01-30T01:31:24.840Z,-4.37
2023-01-30T01:33:52.031Z,-4.29
2023-01-30T01:36:42.380Z,-4.34
2023-01-30T01:39:05.425Z,-4.37
2023-01-30T01:41:32.032Z,-4.35
2023-01-30T01:44:04.009Z,-4.28
2023-01-30T01:46:55.666Z,-4.29
2023-01-30T01:49:32.410Z,-4.23
2023-01-30T01:51:58.885Z,-4.03
2023-01-30T01:54:33.133Z,-3.79
2023-01-30T01:57:02.980Z,-3.77
2023-01-30T01:59:34.828Z,-3.67
2023-01-30T02:02:07.850Z,-3.52
2023-01-30T02:04:57.148Z,-3.37
2023-01-30T02:07:23.893Z,-3.40
2023-01-30T02:09:51.619Z,-3.32
2023-01-30T02:12:19.959Z,-3.33
2023-01-30T02:14:48.733Z,-3.23
2023-01-30T02:17:15.334Z,-3.15
2023-01-30T02:19:58.479Z,-3.18
2023-01-30T02:22:47.959Z,-3.17
2023-01-30T02:25:20.934Z,-3.17
2023-01-30T02:28:12.379Z,-3.07
2023-01-30T02:31:05.225Z,-3.17
2023-01-30T02:33:57.611Z,-3.11
2023-01-30T02:36:33.454Z,-3.08
2023-01-30T02:39:21.595Z,-3.05
2023-01-30T02:42:11.549Z,-2.95
2023-01-30T02:45:04.015Z,-2.89
2023-01-30T02:47:38.353Z,-2.73
2023-01-30T02:50:15.934Z,-2.49
2023-01-30T02:52:43.244Z,-2.79
2023-01-30T02:55:19.670Z,-2.83
2023-01-30T02:57:46.569Z,-2.87
2023-01-30T03:00:16.260Z,-2.82
2023-01-30T03:03:10.993Z,-2.76
2023-01-30T03:05:51.240Z,-2.88
2023-01-30T03:08:34.652Z,-2.90
2023-01-30T03:11:07.985Z,-3.04
2023-01-30T03:13:59.708Z,-2.88
2023-01-30T03:16:31.602Z,-3.01
2023-01-30T03:19:01.693Z,-2.88
2023-01-30T03:21:28.255Z,-2.88
2023-01-30T03:23:55.054Z,-2.89
2023-01-30T03:26:26.297Z,-2.99
2023-01-30T03:28:53.458Z,-2.86
2023-01-30T03:31:20.211Z,-2.71
2023-01-30T03:33:46.754Z,-3.17
2023-01-30T03:36:13.513Z,-2.92
2023-01-30T03:38:40.289Z,-2.91
2023-01-30T03:41:06.952Z,-3.06
2023-01-30T03:43:34.647Z,-2.91
2023-01-30T03:46:03.217Z,-2.82
2023-01-30T03:48:29.996Z,-3.05
2023-01-30T03:50:56.623Z,-2.96
2023-01-30T03:53:23.259Z,-3.00
2023-01-30T03:55:50.124Z,-3.01
2023-01-30T03:58:21.902Z,-2.84
2023-01-30T04:00:48.610Z,-2.93
2023-01-30T04:03:15.824Z,-3.06
2023-01-30T04:05:43.821Z,-3.08
2023-01-30T04:08:10.735Z,-3.14
2023-01-30T04:10:37.291Z,-3.20
2023-01-30T04:13:03.869Z,-3.03
2023-01-30T04:15:32.039Z,-3.17
2023-01-30T04:18:20.215Z,-3.15
2023-01-30T04:20:51.496Z,-3.30
2023-01-30T04:23:24.120Z,-3.13
2023-01-30T04:25:51.046Z,-3.23
2023-01-30T04:28:19.989Z,-3.34
2023-01-30T04:30:47.393Z,-3.44
2023-01-30T04:33:40.760Z,-3.17
2023-01-30T04:36:10.609Z,-3.08
2023-01-30T04:38:38.142Z,-3.16
2023-01-30T04:41:05.608Z,-3.22
2023-01-30T04:43:34.677Z,-3.14
2023-01-30T04:46:10.016Z,-3.22
2023-01-30T04:48:36.695Z,-2.91
2023-01-30T04:51:03.372Z,-2.96
2023-01-30T04:53:30.049Z,-2.81
2023-01-30T04:55:56.839Z,-2.79
2023-01-30T04:58:23.357Z,-2.53
2023-01-30T05:00:50.124Z,-2.52
2023-01-30T05:03:16.768Z,-2.84
2023-01-30T05:05:46.749Z,-3.04
2023-01-30T05:08:13.380Z,-2.99
2023-01-30T05:10:41.840Z,-2.91
2023-01-30T05:13:08.477Z,-2.71
2023-01-30T05:15:35.159Z,-2.69
2023-01-30T05:18:01.682Z,-2.54
2023-01-30T05:20:28.256Z,-2.54
2023-01-30T05:22:54.853Z,-2.58
2023-01-30T05:25:21.474Z,-2.70
2023-01-30T05:27:48.007Z,-2.49
2023-01-30T05:30:14.632Z,-2.23
2023-01-30T05:32:41.135Z,-2.52
2023-01-30T05:35:08.467Z,-2.59
2023-01-30T05:37:35.003Z,-2.48
2023-01-30T05:40:02.502Z,-2.63
2023-01-30T05:42:29.163Z,-2.68
2023-01-30T05:44:55.682Z,-2.06
2023-01-30T05:47:22.212Z,-2.37
2023-01-30T05:49:48.698Z,-2.53
2023-01-30T05:52:15.320Z,-2.48
2023-01-30T05:54:41.821Z,-2.54
2023-01-30T05:57:08.348Z,-2.53
2023-01-30T05:59:34.874Z,-2.44
2023-01-30T06:02:02.131Z,-2.58
2023-01-30T06:04:28.697Z,-2.44
2023-01-30T06:06:55.220Z,-2.27
2023-01-30T06:09:21.709Z,-1.94
2023-01-30T06:11:48.267Z,-2.29
2023-01-30T06:14:14.843Z,-2.46
2023-01-30T06:16:41.438Z,-2.42
2023-01-30T06:19:08.778Z,-2.42
2023-01-30T06:21:35.310Z,-1.90
2023-01-30T06:24:02.437Z,-2.16
2023-01-30T06:26:29.022Z,-2.40
2023-01-30T06:28:55.519Z,-2.30
2023-01-30T06:31:22.129Z,-2.16
2023-01-30T06:33:49.392Z,-2.32
2023-01-30T06:36:16.025Z,-2.30
2023-01-30T06:38:42.559Z,-2.15
2023-01-30T06:41:09.184Z,-2.20
2023-01-30T06:43:35.675Z,-2.22
2023-01-30T06:46:02.267Z,-2.25
2023-01-30T06:48:28.920Z,-1.89
2023-01-30T06:50:55.503Z,-1.83
2023-01-30T06:53:25.298Z,-1.76
2023-01-30T06:55:51.888Z,-1.86
2023-01-30T06:58:18.531Z,-1.95
2023-01-30T07:00:45.017Z,-1.90
2023-01-30T07:03:14.002Z,-1.58
2023-01-30T07:05:41.739Z,-1.82
2023-01-30T07:08:09.331Z,-1.83
2023-01-30T07:10:36.074Z,-1.61
2023-01-30T07:13:04.155Z,-1.77
2023-01-30T07:15:31.302Z,-1.88
2023-01-30T07:17:58.200Z,-1.81
2023-01-30T07:20:24.945Z,-1.80
2023-01-30T07:22:55.634Z,-1.69
2023-01-30T07:25:24.545Z,-1.69
2023-01-30T07:27:52.545Z,-1.66
2023-01-30T07:30:19.809Z,-1.63
2023-01-30T07:32:54.618Z,-1.50
2023-01-30T07:35:23.174Z,-1.37
2023-01-30T07:37:51.520Z,-1.39
2023-01-30T07:40:19.899Z,-1.58
2023-01-30T07:43:01.063Z,-0.88
2023-01-30T07:45:32.034Z,-1.12
2023-01-30T07:47:58.632Z,-1.55
2023-01-30T07:50:25.302Z,-1.41
2023-01-30T07:52:51.868Z,-1.20
2023-01-30T07:55:18.791Z,-0.75
2023-01-30T07:57:45.563Z,-1.33
2023-01-30T08:00:12.719Z,-1.25
2023-01-30T08:02:39.318Z,-1.34
2023-01-30T08:05:06.431Z,-0.82
2023-01-30T08:07:33.295Z,-0.54
2023-01-30T08:09:59.847Z,-0.98
2023-01-30T08:12:26.550Z,-1.15
2023-01-30T08:14:53.187Z,-1.15
2023-01-30T08:17:19.718Z,-1.05
2023-01-30T08:19:46.221Z,-1.05
2023-01-30T08:22:13.667Z,-1.08
2023-01-30T08:24:40.264Z,-1.11
2023-01-30T08:27:06.985Z,0.03
2023-01-30T08:29:33.512Z,-0.85
2023-01-30T08:32:00.739Z,-0.79
2023-01-30T08:34:27.870Z,-0.80
2023-01-30T08:36:54.400Z,-0.39
2023-01-30T08:39:20.911Z,-0.71
2023-01-30T08:41:47.419Z,-0.59
2023-01-30T08:44:14.049Z,0.00
2023-01-30T08:46:40.690Z,-0.62
2023-01-30T08:49:07.247Z,-0.23
2023-01-30T08:51:33.948Z,-0.60
2023-01-30T08:54:00.485Z,-0.58
2023-01-30T08:56:27.488Z,-0.50
2023-01-30T08:58:54.022Z,-0.25
2023-01-30T09:01:20.923Z,-0.02
2023-01-30T09:03:47.936Z,-0.44
2023-01-30T09:06:14.507Z,-0.57
2023-01-30T09:08:41.089Z,-0.43
2023-01-30T09:11:07.746Z,-0.67
2023-01-30T09:13:34.713Z,-0.88
2023-01-30T09:16:04.118Z,-0.65
2023-01-30T09:18:30.629Z,-0.88
2023-01-30T09:21:15.212Z,-0.76
2023-01-30T09:23:41.775Z,-0.53
2023-01-30T09:26:08.414Z,-0.56
2023-01-30T09:28:35.719Z,-0.42
2023-01-30T09:31:03.046Z,-0.56
2023-01-30T09:33:29.953Z,-0.33
2023-01-30T09:35:56.598Z,-0.39
2023-01-30T09:38:23.149Z,-0.35
2023-01-30T09:40:58.447Z,-0.15
2023-01-30T09:43:47.036Z,-0.14
2023-01-30T09:46:50.618Z,-0.07
2023-01-30T09:49:46.429Z,-0.26
2023-01-30T09:52:34.333Z,0.24
2023-01-30T09:55:09.904Z,0.00
2023-01-30T09:57:36.497Z,-0.12
2023-01-30T10:00:11.591Z,-0.26
2023-01-30T10:02:46.569Z,0.45
2023-01-30T10:05:13.957Z,-0.01
2023-01-30T10:08:08.068Z,0.48
2023-01-30T10:10:44.002Z,0.05
2023-01-30T10:13:46.514Z,-0.33
2023-01-30T10:16:13.082Z,0.35
2023-01-30T10:19:04.447Z,0.22
2023-01-30T10:21:47.672Z,0.22
2023-01-30T10:24:43.736Z,0.41
2023-01-30T10:27:16.728Z,0.35
2023-01-30T10:29:56.340Z,0.10
2023-01-30T10:33:05.471Z,0.59
2023-01-30T10:35:38.868Z,0.54
2023-01-30T10:38:30.195Z,0.86
2023-01-30T10:41:37.668Z,0.69
2023-01-30T10:44:13.339Z,0.41
2023-01-30T10:47:07.721Z,0.42
2023-01-30T10:49:58.754Z,-0.06
2023-01-30T10:52:56.655Z,0.13
2023-01-30T10:55:37.118Z,0.17
2023-01-30T10:58:15.509Z,0.19
2023-01-30T11:00:56.203Z,0.21
2023-01-30T11:03:49.901Z,0.15
2023-01-30T11:06:23.909Z,0.19
2023-01-30T11:08:52.342Z,0.29
2023-01-30T11:11:51.534Z,0.21
2023-01-30T11:14:18.238Z,0.23
2023-01-30T11:33:13.377Z,0.08
2023-01-30T11:35:54.297Z,0.09
2023-01-30T11:38:33.110Z,0.30
2023-01-30T11:41:18.188Z,0.44
2023-01-30T11:43:44.790Z,0.55
2023-01-30T11:46:13.993Z,0.82
2023-01-30T11:49:06.289Z,0.49
2023-01-30T11:51:44.629Z,0.48
2023-01-30T11:54:21.253Z,0.69
2023-01-30T11:56:55.479Z,0.78
2023-01-30T11:59:27.236Z,0.74
2023-01-30T12:02:12.349Z,0.99
2023-01-30T12:04:38.961Z,0.88
2023-01-30T12:07:14.314Z,0.75
2023-01-30T12:09:41.178Z,0.95
2023-01-30T12:12:26.635Z,0.87
2023-01-30T12:15:00.033Z,0.90
2023-01-30T12:17:42.373Z,1.00
2023-01-30T12:20:37.247Z,1.04
2023-01-30T12:23:25.629Z,1.45
2023-01-30T12:25:54.922Z,0.95
2023-01-30T12:28:59.048Z,1.05
2023-01-30T12:31:43.996Z,1.14
2023-01-30T12:34:10.693Z,0.80
2023-01-30T12:36:58.975Z,1.08
2023-01-30T12:39:37.449Z,1.09
2023-01-30T12:42:47.873Z,0.88
2023-01-30T12:45:30.634Z,0.74
2023-01-30T12:48:08.470Z,0.55
2023-01-30T12:50:47.221Z,0.58
2023-01-30T12:53:27.165Z,0.77
2023-01-30T12:56:15.330Z,0.88
2023-01-30T12:58:51.546Z,0.87
2023-01-30T13:01:46.095Z,0.60
2023-01-30T13:04:56.119Z,0.93
2023-01-30T13:07:50.100Z,0.78
2023-01-30T13:10:26.906Z,0.51
2023-01-30T13:13:09.762Z,0.87
2023-01-30T13:15:46.285Z,0.80
2023-01-30T13:18:25.117Z,0.63
2023-01-30T13:21:19.750Z,0.93
2023-01-30T13:24:18.618Z,1.08
2023-01-30T13:26:47.584Z,0.98
2023-01-30T13:29:23.300Z,1.13
2023-01-30T13:31:57.636Z,1.21
2023-01-30T13:34:44.673Z,1.53
2023-01-30T13:37:18.141Z,1.44
2023-01-30T13:39:59.346Z,1.57
2023-01-30T13:42:52.601Z,1.40
2023-01-30T13:45:26.241Z,1.27
2023-01-30T13:48:05.755Z,1.17
2023-01-30T13:51:17.304Z,1.44
2023-01-30T13:53:58.405Z,1.36
2023-01-30T13:56:51.165Z,1.33
2023-01-30T13:59:35.628Z,1.25
2023-01-30T14:02:07.043Z,1.16
2023-01-30T14:04:36.854Z,1.17
2023-01-30T14:07:16.049Z,1.37
2023-01-30T14:09:49.339Z,1.32
2023-01-30T14:12:24.078Z,1.48
2023-01-30T14:15:04.042Z,1.13
2023-01-30T14:17:30.874Z,1.66
2023-01-30T14:20:16.066Z,0.98
2023-01-30T14:22:56.648Z,1.11
2023-01-30T14:25:23.187Z,0.97
2023-01-30T14:27:52.819Z,0.74
2023-01-30T14:30:31.628Z,0.82
2023-01-30T14:33:00.533Z,1.22
2023-01-30T14:35:33.770Z,1.00
2023-01-30T14:38:11.823Z,1.26
2023-01-30T14:40:46.400Z,1.21
2023-01-30T14:43:12.982Z,1.06
2023-01-30T14:45:45.064Z,0.96
2023-01-30T14:48:50.052Z,1.15
2023-01-30T14:51:45.887Z,1.26
2023-01-30T14:54:12.942Z,1.47
2023-01-30T14:56:59.884Z,1.50
2023-01-30T14:59:32.682Z,1.43
2023-01-30T15:02:14.926Z,1.58
2023-01-30T15:04:41.590Z,1.48
2023-01-30T15:07:13.288Z,1.65
2023-01-30T15:09:44.850Z,1.41
2023-01-30T15:12:32.440Z,1.45
2023-01-30T15:15:29.693Z,1.74
2023-01-30T15:18:09.010Z,1.35
2023-01-30T15:21:13.166Z,1.54
2023-01-30T15:24:08.634Z,1.41
2023-01-30T15:26:59.956Z,1.22
2023-01-30T15:29:57.178Z,1.27
2023-01-30T15:32:25.878Z,1.39
2023-01-30T15:34:58.263Z,1.48
2023-01-30T15:37:39.636Z,1.33
2023-01-30T15:40:19.830Z,1.48
2023-01-30T15:43:09.627Z,1.35
2023-01-30T15:45:49.229Z,1.64
2023-01-30T15:48:40.351Z,1.45
2023-01-30T15:51:12.156Z,1.46
2023-01-30T15:53:44.583Z,1.88
2023-01-30T15:56:19.337Z,1.46
2023-01-30T15:58:46.457Z,1.16
2023-01-30T16:01:19.891Z,1.30
2023-01-30T16:03:47.371Z,1.87
2023-01-30T16:06:30.640Z,1.45
2023-01-30T16:09:00.791Z,1.47
2023-01-30T16:11:40.702Z,1.40
2023-01-30T16:14:13.358Z,1.32
2023-01-30T16:16:44.845Z,1.38
2023-01-30T16:19:39.848Z,1.68
2023-01-30T16:22:21.749Z,1.30
2023-01-30T16:24:52.516Z,1.71
2023-01-30T16:27:25.543Z,1.61
2023-01-30T16:29:56.776Z,1.60
2023-01-30T16:32:28.990Z,1.58
2023-01-30T16:35:26.840Z,1.66
2023-01-30T16:37:56.180Z,1.47
2023-01-30T16:40:33.123Z,1.54
2023-01-30T16:43:04.005Z,1.57
2023-01-30T16:45:36.714Z,1.63
2023-01-30T16:48:33.674Z,1.58
2023-01-30T16:51:00.110Z,1.50
2023-01-30T16:53:30.944Z,1.43
2023-01-30T16:56:03.952Z,1.88
2023-01-30T16:58:35.003Z,1.64
2023-01-30T17:01:07.523Z,1.27
2023-01-30T17:03:40.389Z,1.40
2023-01-30T17:06:12.764Z,1.23
2023-01-30T17:08:52.173Z,1.44
2023-01-30T17:11:39.680Z,1.23
2023-01-30T17:14:25.771Z,1.54
2023-01-30T17:17:09.874Z,1.48
2023-01-30T17:19:37.232Z,1.90
2023-01-30T17:22:07.934Z,1.40
2023-01-30T17:24:36.156Z,1.58
2023-01-30T17:27:04.501Z,1.81
2023-01-30T17:29:42.805Z,1.40
2023-01-30T17:32:15.367Z,1.69
2023-01-30T17:34:42.385Z,0.91
2023-01-30T17:37:15.215Z,1.62
2023-01-30T17:39:41.854Z,1.07
2023-01-30T17:42:12.547Z,1.31
2023-01-30T17:44:39.205Z,1.42
2023-01-30T17:47:06.422Z,1.26
2023-01-30T17:49:33.149Z,1.34
2023-01-30T17:52:00.323Z,1.13
2023-01-30T17:54:27.226Z,1.47
2023-01-30T17:57:09.726Z,1.46
2023-01-30T17:59:36.207Z,1.08
2023-01-30T18:02:03.057Z,1.19
2023-01-30T18:04:29.579Z,1.15
2023-01-30T18:07:03.543Z,1.27
2023-01-30T18:09:30.731Z,1.22
2023-01-30T18:11:57.246Z,1.58
2023-01-30T18:14:23.845Z,1.40
2023-01-30T18:16:50.714Z,1.29
2023-01-30T18:19:18.492Z,1.27
2023-01-30T18:21:45.618Z,1.42
2023-01-30T18:24:13.149Z,0.93
2023-01-30T18:26:40.379Z,1.55
2023-01-30T18:29:07.626Z,1.31
2023-01-30T18:31:34.219Z,1.34
2023-01-30T18:34:00.796Z,1.25
2023-01-30T18:36:27.472Z,1.08
2023-01-30T18:38:54.415Z,1.16
2023-01-30T18:41:23.770Z,1.34
2023-01-30T18:43:58.288Z,1.38
2023-01-30T18:46:26.188Z,1.60
2023-01-30T18:48:53.189Z,1.04
2023-01-30T18:51:22.449Z,1.35
2023-01-30T18:53:51.123Z,0.67
2023-01-30T18:56:20.921Z,1.09
2023-01-30T18:58:52.321Z,1.09
2023-01-30T19:01:21.182Z,1.56
2023-01-30T19:03:48.416Z,1.50
2023-01-30T19:06:17.724Z,1.43
2023-01-30T19:08:45.529Z,1.48
2023-01-30T19:11:33.721Z,1.35
2023-01-30T19:14:01.410Z,1.69
2023-01-30T19:16:29.515Z,1.58
2023-01-30T19:18:56.474Z,1.61
2023-01-30T19:21:24.820Z,1.31
2023-01-30T19:23:51.691Z,1.34
2023-01-30T19:26:21.294Z,1.35
2023-01-30T19:28:48.390Z,1.45
2023-01-30T19:31:17.885Z,1.43
2023-01-30T19:33:46.503Z,1.67
2023-01-30T19:36:18.392Z,1.56
2023-01-30T19:38:47.152Z,1.33
2023-01-30T19:41:16.163Z,1.67
2023-01-30T19:43:43.005Z,1.63
2023-01-30T19:46:13.364Z,1.64
2023-01-30T19:48:40.366Z,1.60
2023-01-30T19:51:15.757Z,2.05
2023-01-30T19:53:44.636Z,1.69
2023-01-30T19:56:13.568Z,1.92
2023-01-30T19:58:41.196Z,1.70
2023-01-30T20:01:13.242Z,1.21
2023-01-30T20:03:41.273Z,1.55
2023-01-30T20:06:07.993Z,1.66
2023-01-30T20:08:36.540Z,1.38
2023-01-30T20:11:10.635Z,1.74
2023-01-30T20:13:39.018Z,1.38
2023-01-30T20:16:07.329Z,1.12
2023-01-30T20:18:37.311Z,1.33
2023-01-30T20:21:12.018Z,1.53
2023-01-30T20:23:41.145Z,1.57
2023-01-30T20:26:09.727Z,1.80
2023-01-30T20:28:37.122Z,1.48
2023-01-30T20:31:09.686Z,1.64
2023-01-30T20:33:36.569Z,1.43
2023-01-30T20:36:09.730Z,1.50
2023-01-30T20:38:38.831Z,1.67
2023-01-30T20:41:11.056Z,1.79
2023-01-30T20:43:39.802Z,1.23
2023-01-30T20:46:07.275Z,1.63
2023-01-30T20:48:35.209Z,1.49
2023-01-30T20:51:19.896Z,2.04
2023-01-30T20:54:12.242Z,1.52
2023-01-30T20:56:45.488Z,1.51
2023-01-30T20:59:15.083Z,1.59
2023-01-30T21:01:42.209Z,1.67
2023-01-30T21:04:14.991Z,1.82
2023-01-30T21:06:45.720Z,1.83
2023-01-30T21:09:16.054Z,1.64
2023-01-30T21:11:42.727Z,1.42
2023-01-30T21:14:09.241Z,1.60
2023-01-30T21:16:37.079Z,1.80
2023-01-30T21:19:06.011Z,1.80
2023-01-30T21:21:35.923Z,1.52
2023-01-30T21:24:06.140Z,1.42
2023-01-30T21:26:36.937Z,1.78
2023-01-30T21:29:06.370Z,1.83
2023-01-30T21:31:37.571Z,1.66
2023-01-30T21:34:04.463Z,1.69
2023-01-30T21:36:31.135Z,1.68
2023-01-30T21:39:16.495Z,1.67
2023-01-30T21:41:50.896Z,1.09
2023-01-30T21:44:19.611Z,1.89
2023-01-30T21:46:48.161Z,2.43
2023-01-30T21:49:16.427Z,1.51
2023-01-30T21:51:45.232Z,1.76
2023-01-30T21:54:12.151Z,1.62
2023-01-30T21:56:40.142Z,1.62
2023-01-30T21:59:07.154Z,1.33
2023-01-30T22:01:35.062Z,1.66
2023-01-30T22:04:03.756Z,1.59
2023-01-30T22:06:30.945Z,1.63
2023-01-30T22:08:59.790Z,1.70
2023-01-30T22:11:28.070Z,2.15
2023-01-30T22:13:55.027Z,1.67
2023-01-30T22:16:24.393Z,1.46
2023-01-30T22:18:54.461Z,1.20
2023-01-30T22:21:23.297Z,1.92
2023-01-30T22:23:52.334Z,1.64
2023-01-30T22:26:21.286Z,1.92
2023-01-30T22:28:48.124Z,1.68
2023-01-30T22:31:19.890Z,1.72
2023-01-30T22:33:49.136Z,1.39
2023-01-30T22:36:16.107Z,1.27
2023-01-30T22:38:47.831Z,1.24
2023-01-30T22:41:18.311Z,1.53
2023-01-30T22:43:47.160Z,1.69
2023-01-30T22:46:14.734Z,1.71
2023-01-30T22:48:41.979Z,1.77
2023-01-30T22:51:14.875Z,1.88
2023-01-30T22:53:47.050Z,1.63
2023-01-30T22:56:17.469Z,1.35
2023-01-30T22:58:44.901Z,1.50
2023-01-30T23:18:14.004Z,1.18
2023-01-30T23:20:40.512Z,1.26
2023-01-30T23:23:07.219Z,1.32
2023-01-30T23:25:33.939Z,1.48
2023-01-30T23:28:00.473Z,1.41
2023-01-30T23:30:27.514Z,1.44
2023-01-30T23:32:54.017Z,1.47
2023-01-30T23:35:20.842Z,1.77
2023-01-30T23:38:06.209Z,1.50
2023-01-30T23:40:32.750Z,1.61
2023-01-30T23:42:59.277Z,1.42
2023-01-30T23:45:28.394Z,1.76
2023-01-30T23:47:54.900Z,1.62
2023-01-30T23:50:21.445Z,1.54
2023-01-30T23:52:47.976Z,1.55
2023-01-30T23:55:14.558Z,1.50
2023-01-30T23:57:41.070Z,1.52
